createdAt,value
2018-08-09T00:01:01.131Z,3.67
2018-08-09T00:03:29.618Z,4.67
2018-08-09T00:05:58.202Z,2.80
2018-08-09T00:08:26.674Z,5.70
2018-08-09T00:10:55.259Z,4.23
2018-08-09T00:13:23.741Z,6.27
2018-08-09T00:15:52.238Z,5.30
2018-08-09T00:18:20.731Z,5.60
2018-08-09T00:20:49.229Z,5.30
2018-08-09T00:23:17.696Z,4.43
2018-08-09T00:25:46.133Z,4.43
2018-08-09T00:28:14.582Z,6.73
2018-08-09T00:30:43.006Z,3.93
2018-08-09T00:33:11.488Z,4.60
2018-08-09T00:35:40.023Z,4.53
2018-08-09T00:38:08.593Z,5.93
2018-08-09T00:40:37.134Z,4.57
2018-08-09T00:43:05.774Z,5.77
2018-08-09T00:45:34.300Z,4.93
2018-08-09T00:48:02.764Z,4.47
2018-08-09T00:50:31.304Z,5.80
2018-08-09T00:52:59.912Z,5.27
2018-08-09T00:55:28.346Z,5.27
2018-08-09T00:57:56.822Z,4.53
2018-08-09T01:00:25.279Z,5.07
2018-08-09T01:02:53.694Z,4.90
2018-08-09T01:05:22.316Z,6.13
2018-08-09T01:07:50.756Z,5.73
2018-08-09T01:10:19.268Z,4.83
2018-08-09T01:12:47.706Z,7.13
2018-08-09T01:15:16.186Z,6.53
2018-08-09T01:17:44.618Z,5.27
2018-08-09T01:20:13.096Z,5.90
2018-08-09T01:22:41.540Z,4.83
2018-08-09T01:25:10.091Z,7.20
2018-08-09T01:27:38.542Z,5.00
2018-08-09T01:30:07.151Z,5.93
2018-08-09T01:32:35.600Z,4.87
2018-08-09T01:35:04.068Z,5.47
2018-08-09T01:37:32.504Z,7.17
2018-08-09T01:40:01.018Z,6.00
2018-08-09T01:42:40.569Z,4.60
2018-08-09T01:45:08.992Z,6.47
2018-08-09T01:47:37.436Z,6.37
2018-08-09T01:50:05.899Z,6.50
2018-08-09T01:52:34.346Z,6.53
2018-08-09T01:55:03.199Z,8.20
2018-08-09T01:57:31.635Z,5.97
2018-08-09T02:00:00.096Z,6.57
2018-08-09T02:02:28.531Z,7.70
2018-08-09T02:04:57.417Z,6.10
2018-08-09T02:07:25.861Z,5.13
2018-08-09T02:09:54.287Z,5.70
2018-08-09T02:12:22.764Z,7.03
2018-08-09T02:14:51.236Z,6.13
2018-08-09T02:17:19.693Z,8.33
2018-08-09T02:19:48.204Z,6.33
2018-08-09T02:22:16.768Z,5.30
2018-08-09T02:24:45.217Z,6.30
2018-08-09T02:27:13.715Z,7.07
2018-08-09T02:29:42.169Z,5.43
2018-08-09T02:32:10.618Z,7.23
2018-08-09T02:34:39.320Z,7.33
2018-08-09T02:37:08.037Z,6.13
2018-08-09T02:39:36.475Z,6.30
2018-08-09T02:42:04.983Z,7.83
2018-08-09T02:44:33.541Z,5.50
2018-08-09T02:47:02.244Z,6.50
2018-08-09T02:49:30.749Z,5.77
2018-08-09T02:51:59.177Z,7.40
2018-08-09T02:54:27.603Z,8.10
2018-08-09T02:56:56.406Z,6.20
2018-08-09T02:59:24.867Z,7.67
2018-08-09T03:01:53.314Z,7.57
2018-08-09T03:04:21.775Z,5.63
2018-08-09T03:06:50.221Z,4.57
2018-08-09T03:09:18.757Z,5.10
2018-08-09T03:11:47.209Z,4.93
2018-08-09T03:14:15.731Z,6.33
2018-08-09T03:16:44.256Z,4.03
2018-08-09T03:19:12.711Z,5.77
2018-08-09T03:21:41.235Z,4.20
2018-08-09T03:24:09.673Z,9.70
2018-08-09T03:26:38.148Z,4.80
2018-08-09T03:29:06.620Z,5.27
2018-08-09T03:31:35.220Z,3.47
2018-08-09T03:34:03.713Z,5.07
2018-08-09T03:36:32.176Z,4.83
2018-08-09T03:39:00.580Z,5.00
2018-08-09T03:41:29.046Z,5.80
2018-08-09T03:43:57.466Z,6.90
2018-08-09T03:46:25.898Z,7.90
2018-08-09T03:48:54.303Z,5.23
2018-08-09T03:51:22.746Z,4.57
2018-08-09T03:53:51.171Z,5.47
2018-08-09T03:56:19.623Z,6.73
2018-08-09T03:58:48.080Z,4.47
2018-08-09T04:01:16.516Z,5.40
2018-08-09T04:03:45.104Z,7.60
2018-08-09T04:06:13.524Z,4.27
2018-08-09T04:08:41.945Z,6.43
2018-08-09T04:11:10.526Z,3.83
2018-08-09T04:13:38.962Z,4.77
2018-08-09T04:16:07.452Z,6.23
2018-08-09T04:18:36.014Z,4.37
2018-08-09T04:21:04.868Z,5.60
2018-08-09T04:23:33.376Z,5.90
2018-08-09T04:26:01.864Z,5.30
2018-08-09T04:28:30.329Z,6.60
2018-08-09T04:30:58.835Z,5.20
2018-08-09T04:33:27.281Z,6.20
2018-08-09T04:35:55.754Z,5.67
2018-08-09T04:38:24.194Z,6.00
2018-08-09T04:40:52.672Z,6.23
2018-08-09T04:43:21.298Z,6.17
2018-08-09T04:45:49.709Z,6.40
2018-08-09T04:48:18.259Z,3.93
2018-08-09T04:50:46.735Z,5.17
2018-08-09T04:53:15.142Z,8.13
2018-08-09T04:55:43.720Z,5.63
2018-08-09T04:58:12.590Z,4.37
2018-08-09T05:00:41.021Z,4.53
2018-08-09T05:03:09.554Z,5.53
2018-08-09T05:05:37.987Z,4.60
2018-08-09T05:08:06.522Z,5.27
2018-08-09T05:10:35.028Z,6.90
2018-08-09T05:13:03.482Z,6.23
2018-08-09T05:15:31.918Z,4.57
2018-08-09T05:18:00.376Z,4.43
2018-08-09T05:20:28.877Z,4.47
2018-08-09T05:22:57.416Z,4.60
2018-08-09T05:25:26.010Z,4.47
2018-08-09T05:27:54.443Z,5.53
2018-08-09T05:30:22.871Z,6.47
2018-08-09T05:32:51.330Z,7.20
2018-08-09T05:35:19.854Z,8.03
2018-08-09T05:37:48.437Z,4.80
2018-08-09T05:40:16.884Z,6.00
2018-08-09T05:42:45.322Z,8.37
2018-08-09T05:45:13.808Z,5.47
2018-08-09T05:47:42.395Z,9.17
2018-08-09T05:50:10.853Z,6.90
2018-08-09T05:52:39.339Z,6.47
2018-08-09T05:55:08.132Z,8.20
2018-08-09T05:57:36.676Z,5.13
2018-08-09T06:00:06.363Z,6.60
2018-08-09T06:02:34.843Z,7.00
2018-08-09T06:05:03.338Z,6.57
2018-08-09T06:07:31.799Z,8.47
2018-08-09T06:10:00.278Z,6.50
2018-08-09T06:12:30.081Z,7.87
2018-08-09T06:14:58.610Z,6.77
2018-08-09T06:17:27.102Z,5.90
2018-08-09T06:19:55.542Z,6.30
2018-08-09T06:22:24.113Z,7.20
2018-08-09T06:24:52.657Z,8.17
2018-08-09T06:27:21.487Z,8.03
2018-08-09T06:29:49.977Z,6.93
2018-08-09T06:32:18.443Z,6.53
2018-08-09T06:34:47.238Z,9.23
2018-08-09T06:37:15.749Z,8.13
2018-08-09T06:39:44.241Z,8.10
2018-08-09T06:42:12.684Z,7.57
2018-08-09T06:44:41.376Z,7.37
2018-08-09T06:47:09.932Z,5.83
2018-08-09T06:49:38.367Z,5.80
2018-08-09T06:52:07.492Z,7.53
2018-08-09T06:54:36.004Z,8.37
2018-08-09T06:57:04.806Z,7.73
2018-08-09T06:59:33.381Z,7.80
2018-08-09T07:02:01.881Z,7.53
2018-08-09T07:04:30.668Z,7.10
2018-08-09T07:06:59.150Z,7.57
2018-08-09T07:09:28.588Z,6.87
2018-08-09T07:11:57.191Z,9.83
2018-08-09T07:14:25.681Z,9.10
2018-08-09T07:16:54.141Z,8.87
2018-08-09T07:19:22.659Z,8.20
2018-08-09T07:21:51.105Z,10.13
2018-08-09T07:24:19.609Z,8.57
2018-08-09T07:26:48.087Z,8.17
2018-08-09T07:29:16.871Z,10.10
2018-08-09T07:31:45.469Z,6.47
2018-08-09T07:34:14.087Z,9.63
2018-08-09T07:36:42.559Z,7.27
2018-08-09T07:39:11.067Z,10.63
2018-08-09T07:41:40.433Z,8.90
2018-08-09T07:44:08.974Z,11.20
2018-08-09T07:46:37.415Z,9.37
2018-08-09T07:49:05.913Z,10.33
2018-08-09T07:51:34.441Z,15.67
2018-08-09T07:54:02.974Z,10.37
2018-08-09T07:56:31.597Z,11.03
2018-08-09T07:59:00.234Z,12.93
2018-08-09T08:01:28.750Z,12.87
2018-08-09T08:03:57.218Z,14.33
2018-08-09T08:06:25.727Z,14.00
2018-08-09T08:08:54.381Z,12.63
2018-08-09T08:11:22.832Z,9.80
2018-08-09T08:13:51.281Z,13.93
2018-08-09T08:16:19.877Z,12.13
2018-08-09T08:18:48.366Z,11.30
2018-08-09T08:21:16.848Z,13.53
2018-08-09T08:23:45.436Z,11.37
2018-08-09T08:26:13.941Z,11.33
2018-08-09T08:28:42.481Z,12.67
2018-08-09T08:31:11.002Z,13.00
2018-08-09T08:33:39.570Z,12.87
2018-08-09T08:36:08.045Z,13.57
2018-08-09T08:38:36.518Z,12.33
2018-08-09T08:41:05.076Z,14.87
2018-08-09T08:43:33.541Z,13.13
2018-08-09T08:46:02.012Z,14.37
2018-08-09T08:48:30.580Z,15.73
2018-08-09T08:50:59.040Z,19.80
2018-08-09T08:53:27.548Z,20.37
2018-08-09T08:55:56.014Z,16.43
2018-08-09T08:58:24.502Z,18.83
2018-08-09T09:00:53.025Z,15.87
2018-08-09T09:03:21.571Z,17.43
2018-08-09T09:05:50.070Z,14.90
2018-08-09T09:08:18.561Z,15.20
2018-08-09T09:10:51.272Z,16.27
2018-08-09T09:13:20.143Z,15.83
2018-08-09T09:15:48.813Z,13.57
2018-08-09T09:18:17.377Z,14.20
2018-08-09T09:20:45.896Z,13.47
2018-08-09T09:23:14.412Z,12.93
2018-08-09T09:25:42.830Z,13.40
2018-08-09T09:28:11.320Z,12.33
2018-08-09T09:30:39.763Z,13.57
2018-08-09T09:33:08.291Z,13.83
2018-08-09T09:35:36.771Z,12.50
2018-08-09T09:38:05.675Z,12.57
2018-08-09T09:40:34.151Z,14.70
2018-08-09T09:43:02.687Z,12.33
2018-08-09T09:45:31.212Z,12.07
2018-08-09T09:47:59.727Z,12.37
2018-08-09T09:50:28.231Z,12.23
2018-08-09T09:52:56.727Z,11.33
2018-08-09T09:55:25.223Z,12.37
2018-08-09T09:57:53.691Z,12.53
2018-08-09T10:00:28.257Z,11.30
2018-08-09T10:02:56.937Z,13.63
2018-08-09T10:05:25.402Z,13.07
2018-08-09T10:07:53.854Z,12.80
2018-08-09T10:10:22.468Z,13.97
2018-08-09T10:12:50.980Z,13.27
2018-08-09T10:15:19.389Z,14.40
2018-08-09T10:17:48.123Z,13.50
2018-08-09T10:20:16.615Z,12.60
2018-08-09T10:22:45.059Z,13.27
2018-08-09T10:25:13.656Z,13.40
2018-08-09T10:27:42.150Z,13.57
2018-08-09T10:30:10.735Z,13.63
2018-08-09T10:32:39.437Z,14.13
2018-08-09T10:35:07.973Z,17.60
2018-08-09T10:37:36.448Z,17.13
2018-08-09T10:40:05.706Z,16.83
2018-08-09T10:42:34.181Z,18.23
2018-08-09T10:45:02.664Z,22.17
2018-08-09T10:47:31.133Z,18.73
2018-08-09T10:49:59.687Z,20.30
2018-08-09T10:52:28.159Z,21.07
2018-08-09T10:54:56.608Z,21.70
2018-08-09T10:57:25.164Z,22.83
2018-08-09T10:59:53.682Z,21.17
2018-08-09T11:02:22.119Z,22.13
2018-08-09T11:04:50.610Z,21.70
2018-08-09T11:07:19.212Z,22.70
2018-08-09T11:09:47.772Z,19.97
2018-08-09T11:12:16.385Z,21.97
2018-08-09T11:14:44.964Z,21.40
2018-08-09T11:17:13.469Z,20.60
2018-08-09T11:19:42.075Z,20.90
2018-08-09T11:22:10.589Z,20.93
2018-08-09T11:24:39.078Z,22.13
2018-08-09T11:27:07.563Z,23.20
2018-08-09T11:29:36.010Z,21.00
2018-08-09T11:32:04.522Z,21.27
2018-08-09T11:34:33.042Z,20.93
2018-08-09T11:37:01.518Z,21.10
2018-08-09T11:39:30.057Z,20.27
2018-08-09T11:41:58.526Z,23.77
2018-08-09T11:44:27.116Z,23.73
2018-08-09T11:46:55.706Z,21.67
2018-08-09T11:49:24.233Z,23.33
2018-08-09T11:51:54.807Z,23.67
2018-08-09T11:54:23.286Z,25.63
2018-08-09T11:56:51.804Z,26.67
2018-08-09T11:59:20.288Z,26.80
2018-08-09T12:01:48.911Z,27.47
2018-08-09T12:04:17.316Z,30.10
2018-08-09T12:06:45.959Z,29.33
2018-08-09T12:09:14.462Z,29.90
2018-08-09T12:11:42.994Z,30.97
2018-08-09T12:14:11.432Z,29.30
2018-08-09T12:16:39.968Z,29.47
2018-08-09T12:19:08.532Z,29.87
2018-08-09T12:21:37.012Z,29.30
2018-08-09T12:24:05.529Z,30.20
2018-08-09T12:26:34.095Z,32.70
2018-08-09T12:29:02.603Z,27.80
2018-08-09T12:31:31.226Z,29.90
2018-08-09T12:33:59.717Z,28.53
2018-08-09T12:36:33.939Z,29.20
2018-08-09T12:39:04.609Z,26.77
2018-08-09T12:41:33.170Z,25.20
2018-08-09T12:44:01.889Z,24.23
2018-08-09T12:46:30.415Z,23.40
2018-08-09T12:48:58.910Z,23.77
2018-08-09T12:51:27.543Z,21.50
2018-08-09T12:53:56.021Z,21.23
2018-08-09T12:56:24.626Z,22.53
2018-08-09T12:58:53.137Z,20.70
2018-08-09T13:01:21.571Z,20.80
2018-08-09T13:03:50.077Z,19.83
2018-08-09T13:06:18.655Z,21.70
2018-08-09T13:08:47.220Z,22.90
2018-08-09T13:11:20.197Z,21.70
2018-08-09T13:13:49.591Z,21.17
2018-08-09T13:16:18.089Z,23.07
2018-08-09T13:18:47.078Z,20.97
2018-08-09T13:21:16.347Z,20.03
2018-08-09T13:23:45.172Z,19.10
2018-08-09T13:26:13.673Z,20.03
2018-08-09T13:28:42.158Z,21.70
2018-08-09T13:31:10.663Z,19.53
2018-08-09T13:33:39.298Z,19.23
2018-08-09T13:36:08.108Z,20.10
2018-08-09T13:38:36.650Z,18.53
2018-08-09T13:41:05.206Z,18.13
2018-08-09T13:43:33.677Z,19.37
2018-08-09T13:46:02.229Z,20.70
2018-08-09T13:48:31.159Z,19.27
2018-08-09T13:50:59.769Z,19.47
2018-08-09T13:53:28.304Z,19.03
2018-08-09T13:55:56.840Z,18.97
2018-08-09T13:58:25.387Z,18.93
2018-08-09T14:00:54.033Z,18.13
2018-08-09T14:03:22.617Z,17.50
2018-08-09T14:05:51.125Z,17.67
2018-08-09T14:08:19.605Z,18.03
2018-08-09T14:10:48.203Z,17.33
2018-08-09T14:13:16.778Z,16.43
2018-08-09T14:15:45.356Z,14.67
2018-08-09T14:18:13.933Z,15.47
2018-08-09T14:20:42.511Z,15.63
2018-08-09T14:23:11.074Z,14.83
2018-08-09T14:25:39.601Z,14.67
2018-08-09T14:28:08.061Z,13.57
2018-08-09T14:30:36.689Z,12.53
2018-08-09T14:33:05.245Z,11.77
2018-08-09T14:35:33.730Z,10.50
2018-08-09T14:38:02.221Z,10.00
2018-08-09T14:40:30.836Z,8.93
2018-08-09T14:42:59.344Z,8.77
2018-08-09T14:45:27.906Z,8.73
2018-08-09T14:47:56.577Z,8.63
2018-08-09T14:50:25.154Z,11.37
2018-08-09T14:52:53.685Z,8.90
2018-08-09T14:55:22.191Z,6.93
2018-08-09T14:57:50.774Z,5.63
2018-08-09T15:00:20.163Z,7.77
2018-08-09T15:02:49.066Z,5.63
2018-08-09T15:05:18.188Z,7.77
2018-08-09T15:07:46.921Z,4.50
2018-08-09T15:10:16.566Z,6.10
2018-08-09T15:12:45.174Z,4.10
2018-08-09T15:15:13.713Z,4.70
2018-08-09T15:17:42.365Z,4.07
2018-08-09T15:20:12.763Z,3.87
2018-08-09T15:22:41.338Z,4.40
2018-08-09T15:25:10.771Z,1.83
2018-08-09T15:27:39.275Z,3.17
2018-08-09T15:30:11.918Z,5.00
2018-08-09T15:32:40.428Z,3.20
2018-08-09T15:35:11.838Z,1.80
2018-08-09T15:37:40.410Z,4.10
2018-08-09T15:40:10.166Z,7.07
2018-08-09T15:42:39.215Z,3.63
2018-08-09T15:45:11.098Z,7.23
2018-08-09T15:47:40.124Z,11.00
2018-08-09T15:50:11.054Z,10.37
2018-08-09T15:52:39.822Z,10.93
2018-08-09T15:55:08.833Z,11.90
2018-08-09T15:57:37.390Z,12.93
2018-08-09T16:00:09.230Z,11.50
2018-08-09T16:02:37.822Z,11.57
2018-08-09T16:05:06.795Z,10.30
2018-08-09T16:07:35.404Z,9.77
2018-08-09T16:10:05.429Z,9.33
2018-08-09T16:12:33.998Z,6.70
2018-08-09T16:15:02.499Z,5.60
2018-08-09T16:17:31.050Z,6.40
2018-08-09T16:19:59.672Z,5.20
2018-08-09T16:22:28.144Z,4.67
2018-08-09T16:24:56.740Z,4.30
2018-08-09T16:27:25.214Z,4.80
2018-08-09T16:29:53.758Z,3.00
2018-08-09T16:32:22.236Z,3.47
2018-08-09T16:34:50.776Z,2.63
2018-08-09T16:37:19.565Z,7.10
2018-08-09T16:39:48.190Z,6.93
2018-08-09T16:42:16.696Z,1.80
2018-08-09T16:44:45.832Z,3.00
2018-08-09T16:47:14.451Z,3.23
2018-08-09T16:49:43.204Z,3.80
2018-08-09T16:52:11.763Z,2.60
2018-08-09T16:54:40.293Z,3.50
2018-08-09T16:57:08.847Z,3.43
2018-08-09T16:59:37.354Z,3.60
2018-08-09T17:02:06.112Z,4.27
2018-08-09T17:04:34.658Z,4.20
2018-08-09T17:07:03.197Z,5.07
2018-08-09T17:09:31.693Z,8.60
2018-08-09T17:12:00.217Z,7.07
2018-08-09T17:14:28.739Z,8.47
2018-08-09T17:16:57.439Z,7.80
2018-08-09T17:19:25.990Z,8.10
2018-08-09T17:21:54.574Z,9.07
2018-08-09T17:24:23.189Z,8.57
2018-08-09T17:26:51.766Z,9.10
2018-08-09T17:29:20.266Z,7.33
2018-08-09T17:31:48.805Z,7.27
2018-08-09T17:34:17.323Z,6.87
2018-08-09T17:36:45.823Z,6.50
2018-08-09T17:39:14.395Z,6.40
2018-08-09T17:41:43.072Z,5.97
2018-08-09T17:44:12.370Z,5.50
2018-08-09T17:46:40.938Z,6.20
2018-08-09T17:49:09.438Z,6.40
2018-08-09T17:51:37.994Z,6.27
2018-08-09T17:54:06.536Z,10.17
2018-08-09T17:56:35.060Z,9.47
2018-08-09T17:59:03.655Z,8.93
2018-08-09T18:01:32.360Z,9.63
2018-08-09T18:04:01.031Z,10.43
2018-08-09T18:06:29.544Z,9.53
2018-08-09T18:08:58.114Z,8.83
2018-08-09T18:11:26.725Z,9.67
2018-08-09T18:13:55.347Z,8.60
2018-08-09T18:16:23.963Z,9.13
2018-08-09T18:18:52.761Z,7.37
2018-08-09T18:21:21.356Z,6.40
2018-08-09T18:23:49.884Z,5.13
2018-08-09T18:26:18.342Z,5.00
2018-08-09T18:28:46.877Z,4.20
2018-08-09T18:31:15.475Z,3.50
2018-08-09T18:33:44.023Z,3.03
2018-08-09T18:36:12.646Z,2.40
2018-08-09T18:38:41.153Z,3.23
2018-08-09T18:41:09.658Z,2.90
2018-08-09T18:43:38.226Z,1.87
2018-08-09T18:46:06.891Z,1.60
2018-08-09T18:48:35.410Z,1.97
2018-08-09T18:51:03.939Z,1.60
2018-08-09T18:53:32.448Z,1.50
2018-08-09T18:56:00.953Z,2.23
2018-08-09T18:58:29.525Z,1.40
2018-08-09T19:00:58.126Z,2.83
2018-08-09T19:03:26.777Z,1.50
2018-08-09T19:05:55.434Z,1.60
2018-08-09T19:08:24.245Z,1.60
2018-08-09T19:10:52.793Z,1.67
2018-08-09T19:13:21.289Z,2.83
2018-08-09T19:15:49.930Z,1.70
2018-08-09T19:18:18.558Z,5.00
2018-08-09T19:20:47.023Z,1.30
2018-08-09T19:23:17.493Z,1.20
2018-08-09T19:25:46.057Z,1.27
2018-08-09T19:28:14.645Z,1.30
2018-08-09T19:30:43.245Z,1.20
2018-08-09T19:33:11.744Z,2.27
2018-08-09T19:35:40.417Z,1.40
2018-08-09T19:38:09.003Z,2.50
2018-08-09T19:40:37.537Z,1.30
2018-08-09T19:43:06.107Z,2.80
2018-08-09T19:45:34.802Z,1.60
2018-08-09T19:48:03.335Z,3.10
2018-08-09T19:50:31.917Z,2.50
2018-08-09T19:53:00.520Z,1.50
2018-08-09T19:55:29.190Z,1.30
2018-08-09T19:57:57.732Z,1.30
2018-08-09T20:00:29.472Z,2.47
2018-08-09T20:02:58.036Z,1.63
2018-08-09T20:05:26.646Z,2.13
2018-08-09T20:07:55.607Z,3.20
2018-08-09T20:10:24.281Z,2.17
2018-08-09T20:12:52.917Z,2.40
2018-08-09T20:15:23.092Z,2.30
2018-08-09T20:17:51.685Z,2.40
2018-08-09T20:20:21.793Z,2.87
2018-08-09T20:22:50.522Z,3.77
2018-08-09T20:25:19.049Z,2.30
2018-08-09T20:27:47.756Z,2.83
2018-08-09T20:30:17.353Z,2.40
2018-08-09T20:32:46.546Z,2.13
2018-08-09T20:35:18.512Z,3.93
2018-08-09T20:37:47.707Z,3.03
2018-08-09T20:40:17.104Z,2.10
2018-08-09T20:42:46.529Z,2.33
2018-08-09T20:45:16.427Z,3.10
2018-08-09T20:47:45.018Z,4.10
2018-08-09T20:50:17.892Z,3.80
2018-08-09T20:52:47.326Z,3.50
2018-08-09T20:55:15.781Z,6.03
2018-08-09T20:57:45.226Z,3.40
2018-08-09T21:00:17.362Z,4.17
2018-08-09T21:02:47.383Z,2.80
2018-08-09T21:05:24.047Z,4.00
2018-08-09T21:07:53.758Z,3.90
2018-08-09T21:10:22.846Z,3.37
2018-08-09T21:12:51.438Z,3.00
2018-08-09T21:15:20.558Z,3.87
2018-08-09T21:17:49.102Z,4.30
2018-08-09T21:20:17.577Z,3.80
2018-08-09T21:22:47.312Z,3.87
2018-08-09T21:25:15.937Z,3.40
2018-08-09T21:27:44.995Z,5.10
2018-08-09T21:30:15.856Z,7.67
2018-08-09T21:32:44.929Z,5.33
2018-08-09T21:35:13.498Z,4.07
2018-08-09T21:37:42.715Z,4.23
2018-08-09T21:40:12.127Z,4.13
2018-08-09T21:42:40.635Z,3.53
2018-08-09T21:45:13.628Z,5.70
2018-08-09T21:47:42.366Z,3.13
2018-08-09T21:50:13.292Z,5.93
2018-08-09T21:52:42.130Z,3.73
2018-08-09T21:55:11.391Z,6.90
2018-08-09T21:57:40.009Z,4.30
2018-08-09T22:00:14.024Z,4.70
2018-08-09T22:02:42.624Z,5.80
2018-08-09T22:05:16.588Z,6.67
2018-08-09T22:07:50.441Z,6.93
2018-08-09T22:10:24.146Z,4.63
2018-08-09T22:12:57.854Z,5.87
2018-08-09T22:15:31.722Z,4.67
2018-08-09T22:18:05.652Z,6.03
2018-08-09T22:20:39.432Z,5.20
2018-08-09T22:23:08.143Z,2.77
2018-08-09T22:25:36.649Z,5.10
2018-08-09T22:28:05.190Z,5.83
2018-08-09T22:30:33.715Z,5.43
2018-08-09T22:33:02.151Z,3.70
2018-08-09T22:35:30.601Z,4.07
2018-08-09T22:37:59.083Z,4.50
2018-08-09T22:40:27.561Z,8.03
2018-08-09T22:42:56.015Z,4.53
2018-08-09T22:45:24.590Z,6.10
2018-08-09T22:47:53.153Z,3.40
2018-08-09T22:50:21.717Z,5.30
2018-08-09T22:52:50.291Z,4.80
2018-08-09T22:55:18.772Z,5.93
2018-08-09T22:57:47.278Z,6.93
2018-08-09T23:00:22.651Z,4.30
2018-08-09T23:02:51.625Z,6.00
2018-08-09T23:05:20.830Z,7.77
2018-08-09T23:07:50.025Z,3.30
2018-08-09T23:10:18.486Z,7.10
2018-08-09T23:12:46.963Z,5.63
2018-08-09T23:15:15.489Z,6.13
2018-08-09T23:17:43.965Z,4.03
2018-08-09T23:20:12.463Z,7.73
2018-08-09T23:22:41.053Z,4.07
2018-08-09T23:25:12.395Z,12.83
2018-08-09T23:27:41.461Z,4.10
2018-08-09T23:30:11.381Z,5.10
2018-08-09T23:32:39.987Z,4.77
2018-08-09T23:35:10.098Z,4.27
2018-08-09T23:37:38.557Z,6.50
2018-08-09T23:40:09.487Z,5.63
2018-08-09T23:42:38.598Z,4.70
2018-08-09T23:45:08.325Z,5.07
2018-08-09T23:47:38.459Z,7.23
2018-08-09T23:50:08.625Z,6.73
2018-08-09T23:52:37.857Z,4.40
2018-08-09T23:55:07.682Z,7.00
2018-08-09T23:57:36.185Z,5.97
